Pemberton, Minnesota
Current Conditions -  °F | °C
As of 10:54 PM on Thursday 30 Oct 2014 (Local Time) from KACQ Reporting Station
Overcast Overcast  
Wind Chill: 25°   Ceiling: 4700
Heat Index: 36°   Visibility: 10mi
Dew Point: 18°   Wind: 17mph
Humidity: 48%   Direction: 340°NNW
Pressure: 30.31"   Gusts: 31mph
Location:  44.01°N, 93.78°W
Report Text: KACQ 310354Z AUTO 34015G27KT 10SM OVC047 02/M08 A3031 RMK AO2
Loading
Personal Weather Stations






























Interactive Weather Map
Tropical Storm Tracking
New forecast layout! Learn more

10-Day Weather Forecast

Advertisements
Track Severe Weather on mobile